Time;durP1;ratioP1;P1;durP2;ratioP2;P2;SDS_P1;SDS_P2;PMS_P1;PMS_P2;Temp;Humidity;BMP_temperature;BMP_pressure;BME280_temperature;BME280_humidity;BME280_pressure;Samples;Min_cycle;Max_cycle;Signal;HPM_P1;HPM_P2
2022/04/27 00:01:47;;;;;;;0.20;0.20;;;4.50;99.90;;;;;;5089475;28;20040;-83
2022/04/27 00:04:14;;;;;;;0.20;0.20;;;4.60;99.90;;;;;;5089359;28;20047;-83
2022/04/27 00:06:41;;;;;;;0.10;0.10;;;4.70;99.90;;;;;;5074855;28;20489;-83
2022/04/27 00:09:08;;;;;;;0.20;0.20;;;4.60;99.90;;;;;;5076489;28;20564;-83
2022/04/27 00:11:35;;;;;;;0.20;0.20;;;4.60;99.90;;;;;;5093395;28;20040;-83
2022/04/27 00:14:03;;;;;;;0.20;0.20;;;4.70;99.90;;;;;;5076780;28;20037;-83
2022/04/27 00:16:30;;;;;;;0.20;0.20;;;5.20;99.90;;;;;;5076886;28;20522;-83
2022/04/27 00:18:57;;;;;;;0.20;0.20;;;4.60;99.90;;;;;;5076856;28;20036;-82
2022/04/27 00:21:23;;;;;;;0.20;0.20;;;4.80;99.90;;;;;;5076517;28;20068;-83
2022/04/27 00:23:50;;;;;;;0.20;0.20;;;4.50;99.90;;;;;;5092988;28;20049;-79
2022/04/27 00:26:17;;;;;;;0.10;0.10;;;5.00;99.90;;;;;;5092783;28;20045;-83
2022/04/27 00:28:44;;;;;;;0.13;0.13;;;4.50;99.90;;;;;;5109838;28;20097;-82
2022/04/27 00:31:11;;;;;;;0.20;0.20;;;5.00;99.90;;;;;;5076218;28;20040;-79
2022/04/27 00:33:38;;;;;;;0.20;0.20;;;4.90;99.90;;;;;;5092984;28;20416;-83
2022/04/27 00:36:05;;;;;;;0.20;0.20;;;4.30;99.90;;;;;;5059473;28;20050;-83
2022/04/27 00:38:31;;;;;;;0.20;0.20;;;4.30;99.90;;;;;;5109613;28;20048;-83
2022/04/27 00:40:58;;;;;;;0.20;0.20;;;4.30;99.90;;;;;;5075906;28;20047;-80
2022/04/27 00:43:40;;;;;;;0.20;0.20;;;4.30;99.90;;;;;;5076321;28;20075;-78
2022/04/27 00:46:09;;;;;;;0.20;0.20;;;4.30;99.90;;;;;;5092196;28;20032;-83
2022/04/27 00:48:36;;;;;;;0.20;0.20;;;4.30;99.90;;;;;;5093056;28;20041;-83
2022/04/27 00:51:03;;;;;;;0.20;0.20;;;4.30;99.90;;;;;;5092620;28;20028;-78
2022/04/27 00:53:30;;;;;;;0.20;0.20;;;4.30;99.90;;;;;;5076248;28;20378;-83
2022/04/27 00:56:01;;;;;;;0.20;0.20;;;4.30;99.90;;;;;;5109054;28;20500;-83
2022/04/27 00:58:28;;;;;;;0.28;0.28;;;4.30;99.90;;;;;;5059458;28;20032;-78
2022/04/27 01:00:55;;;;;;;0.20;0.20;;;4.30;99.90;;;;;;5092322;28;20093;-83
2022/04/27 01:03:23;;;;;;;0.20;0.20;;;4.40;99.90;;;;;;5075512;28;20049;-79
2022/04/27 01:05:50;;;;;;;0.20;0.20;;;4.40;99.90;;;;;;5092549;28;20040;-83
2022/04/27 01:08:20;;;;;;;0.20;0.20;;;4.40;99.90;;;;;;5091772;28;20047;-83
2022/04/27 01:10:49;;;;;;;0.20;0.20;;;4.50;99.90;;;;;;5059763;28;20037;-83
2022/04/27 01:13:16;;;;;;;0.20;0.20;;;4.60;99.90;;;;;;5075458;28;20040;-79
2022/04/27 01:15:43;;;;;;;0.10;0.10;;;4.40;99.90;;;;;;5092190;28;20443;-78
2022/04/27 01:18:10;;;;;;;0.10;0.10;;;4.60;99.90;;;;;;5074062;28;20119;-79
2022/04/27 01:20:38;;;;;;;0.20;0.20;;;4.40;99.90;;;;;;5092073;28;20036;-83
2022/04/27 01:23:06;;;;;;;0.20;0.20;;;4.50;99.90;;;;;;5091889;28;20049;-83
2022/04/27 01:25:52;;;;;;;0.20;0.20;;;4.50;99.90;;;;;;5092076;28;20032;-83
2022/04/27 01:28:24;;;;;;;0.20;0.20;;;4.60;99.90;;;;;;5093065;28;20036;-85
2022/04/27 01:31:01;;;;;;;0.20;0.20;;;4.60;99.90;;;;;;5108896;28;20049;-83
2022/04/27 01:33:30;;;;;;;0.20;0.20;;;4.60;99.90;;;;;;5108256;28;20036;-83
2022/04/27 01:35:58;;;;;;;0.20;0.20;;;4.60;99.90;;;;;;5092066;28;20048;-83
2022/04/27 01:38:25;;;;;;;0.20;0.20;;;5.00;99.90;;;;;;5108383;28;20131;-79
2022/04/27 01:40:56;;;;;;;0.20;0.20;;;4.70;99.90;;;;;;5091563;28;20174;-83
2022/04/27 01:43:25;;;;;;;0.20;0.20;;;4.70;99.90;;;;;;5107940;28;20400;-78
2022/04/27 01:45:52;;;;;;;0.10;0.10;;;4.80;99.90;;;;;;5091631;28;20851;-78
2022/04/27 01:48:23;;;;;;;0.20;0.20;;;4.80;99.90;;;;;;5107962;28;20085;-78
2022/04/27 01:50:49;;;;;;;0.10;0.10;;;4.80;99.90;;;;;;5108135;28;20527;-83
2022/04/27 01:56:01;;;;;;;0.20;0.20;;;5.20;99.90;;;;;;5094105;28;20053;-78
2022/04/27 01:58:28;;;;;;;0.10;0.10;;;4.90;99.90;;;;;;5057927;28;20398;-83
2022/04/27 02:00:55;;;;;;;0.20;0.20;;;4.90;99.90;;;;;;5074688;28;20076;-84
2022/04/27 02:03:22;;;;;;;0.10;0.10;;;5.00;99.90;;;;;;5091447;28;20047;-79
2022/04/27 02:05:49;;;;;;;0.10;0.10;;;5.20;99.90;;;;;;5107690;28;20413;-79
2022/04/27 02:08:16;;;;;;;0.10;0.10;;;5.00;99.90;;;;;;5090655;28;20033;-83
2022/04/27 02:10:42;;;;;;;0.20;0.20;;;5.50;99.90;;;;;;5074608;28;20048;-83
2022/04/27 02:13:10;;;;;;;0.15;0.15;;;5.70;99.90;;;;;;5090579;28;20036;-79
2022/04/27 02:15:37;;;;;;;0.20;0.20;;;5.00;99.90;;;;;;5091405;28;20037;-83
2022/04/27 02:18:04;;;;;;;0.20;0.20;;;5.00;99.90;;;;;;5107757;28;20133;-83
2022/04/27 02:20:31;;;;;;;0.10;0.10;;;5.00;99.90;;;;;;5074061;28;20044;-83
2022/04/27 02:22:58;;;;;;;0.10;0.10;;;5.00;99.90;;;;;;5107712;28;20051;-78
2022/04/27 02:25:25;;;;;;;0.38;0.30;;;5.10;99.90;;;;;;5107391;28;20075;-78
2022/04/27 02:27:52;;;;;;;0.20;0.20;;;5.10;99.90;;;;;;5107333;28;20473;-78
2022/04/27 02:30:19;;;;;;;0.20;0.20;;;5.00;99.90;;;;;;5106731;28;20113;-78
2022/04/27 02:32:46;;;;;;;0.20;0.20;;;5.10;99.90;;;;;;5107155;28;20043;-83
2022/04/27 02:35:14;;;;;;;0.20;0.20;;;5.10;99.90;;;;;;5090510;28;20127;-78
2022/04/27 02:37:41;;;;;;;0.10;0.10;;;5.10;99.90;;;;;;5107216;28;20541;-82
2022/04/27 02:40:09;;;;;;;0.10;0.10;;;5.30;99.90;;;;;;5090497;28;20032;-78
2022/04/27 02:42:36;;;;;;;0.20;0.20;;;5.10;99.90;;;;;;5090008;28;20494;-83
2022/04/27 02:45:03;;;;;;;0.20;0.20;;;5.10;99.90;;;;;;5107001;28;20045;-83
2022/04/27 02:47:30;;;;;;;0.20;0.20;;;5.10;99.90;;;;;;5089834;28;20048;-82
2022/04/27 02:52:42;;;;;;;0.10;0.10;;;5.20;99.90;;;;;;5092785;28;20040;-82
2022/04/27 02:55:09;;;;;;;0.10;0.10;;;5.10;99.90;;;;;;5057151;28;20495;-78
2022/04/27 02:57:35;;;;;;;0.10;0.10;;;5.80;99.90;;;;;;5089986;28;20039;-82
2022/04/27 03:00:03;;;;;;;0.20;0.20;;;5.10;99.90;;;;;;5090347;28;20074;-78
2022/04/27 03:02:30;;;;;;;0.13;0.13;;;5.10;99.90;;;;;;5056902;28;20504;-83
2022/04/27 03:04:56;;;;;;;0.10;0.10;;;5.50;99.90;;;;;;5090026;28;20041;-78
2022/04/27 03:07:23;;;;;;;0.20;0.20;;;5.20;99.90;;;;;;5089608;28;20101;-78
2022/04/27 03:09:50;;;;;;;0.20;0.20;;;5.20;99.90;;;;;;5089757;28;20501;-78
2022/04/27 03:12:17;;;;;;;0.20;0.20;;;5.20;99.90;;;;;;5090062;28;20075;-78
2022/04/27 03:14:43;;;;;;;0.10;0.10;;;5.20;99.90;;;;;;5073199;28;20401;-77
2022/04/27 03:17:10;;;;;;;0.20;0.20;;;5.40;99.90;;;;;;5089927;28;20043;-83
2022/04/27 03:19:37;;;;;;;0.20;0.20;;;5.40;99.90;;;;;;5089453;28;20052;-82
2022/04/27 03:22:04;;;;;;;0.20;0.20;;;5.80;99.90;;;;;;5073130;28;20055;-82
2022/04/27 03:24:31;;;;;;;0.10;0.10;;;5.30;99.90;;;;;;5089335;28;20040;-78
2022/04/27 03:26:58;;;;;;;0.20;0.20;;;5.40;99.90;;;;;;5089485;28;20055;-83
2022/04/27 03:29:24;;;;;;;0.10;0.10;;;5.40;99.90;;;;;;5073291;28;20047;-82
2022/04/27 03:31:51;;;;;;;0.20;0.20;;;5.80;99.90;;;;;;5106534;28;20040;-78
2022/04/27 03:34:18;;;;;;;0.98;0.30;;;5.30;99.90;;;;;;5089656;28;20452;-77
2022/04/27 03:36:44;;;;;;;0.20;0.20;;;5.50;99.90;;;;;;5089301;28;20052;-78
2022/04/27 03:39:11;;;;;;;0.10;0.10;;;6.00;99.90;;;;;;5056569;28;20040;-82
2022/04/27 03:41:38;;;;;;;0.20;0.20;;;6.10;99.90;;;;;;5055378;28;20136;-78
2022/04/27 03:44:04;;;;;;;0.10;0.10;;;5.40;99.90;;;;;;5106532;28;20044;-83
2022/04/27 03:46:31;;;;;;;0.10;0.10;;;5.50;99.90;;;;;;5088279;28;20105;-78
2022/04/27 03:48:58;;;;;;;0.20;0.20;;;5.40;99.90;;;;;;5072788;28;20040;-83
2022/04/27 03:51:24;;;;;;;0.10;0.10;;;5.40;99.90;;;;;;5072482;28;20048;-82
2022/04/27 03:53:51;;;;;;;0.20;0.20;;;5.40;99.90;;;;;;5056107;28;20093;-78
2022/04/27 03:56:18;;;;;;;0.10;0.10;;;5.40;99.90;;;;;;5056196;28;20051;-83
2022/04/27 03:58:44;;;;;;;0.20;0.20;;;5.40;99.90;;;;;;5072165;28;20051;-78
2022/04/27 04:01:11;;;;;;;0.10;0.10;;;5.50;99.90;;;;;;5105694;28;20051;-83
2022/04/27 04:03:38;;;;;;;0.10;0.10;;;5.40;99.90;;;;;;5071858;28;20051;-78
2022/04/27 04:06:05;;;;;;;0.17;0.17;;;5.80;99.90;;;;;;5088483;28;20123;-77
2022/04/27 04:08:31;;;;;;;0.20;0.20;;;5.40;99.90;;;;;;5072291;28;20813;-78
2022/04/27 04:10:58;;;;;;;0.20;0.20;;;5.50;99.90;;;;;;5088600;28;20504;-78
2022/04/27 04:13:25;;;;;;;0.17;0.17;;;6.10;99.90;;;;;;5055535;28;20037;-82
2022/04/27 04:15:51;;;;;;;0.10;0.10;;;5.90;99.90;;;;;;5055777;28;20044;-82
2022/04/27 04:18:18;;;;;;;0.10;0.10;;;5.60;99.90;;;;;;5088795;28;20040;-78
2022/04/27 04:20:45;;;;;;;0.10;0.10;;;5.60;99.90;;;;;;5089090;28;20080;-83
2022/04/27 04:23:12;;;;;;;0.20;0.20;;;5.80;99.90;;;;;;5072540;28;20501;-78
2022/04/27 04:28:29;;;;;;;0.10;0.10;;;5.70;99.90;;;;;;5087266;28;20094;-78
2022/04/27 04:30:57;;;;;;;0.55;0.28;;;6.10;99.90;;;;;;5052565;28;20040;-78
2022/04/27 04:33:24;;;;;;;0.10;0.10;;;5.80;99.90;;;;;;5053305;28;20135;-78
2022/04/27 04:35:52;;;;;;;0.20;0.20;;;5.80;99.90;;;;;;5072564;28;20569;-83
2022/04/27 04:38:19;;;;;;;0.10;0.10;;;5.80;99.90;;;;;;5088883;28;20040;-79
2022/04/27 04:40:46;;;;;;;0.17;0.17;;;5.80;99.90;;;;;;5088854;28;20037;-79
2022/04/27 04:43:13;;;;;;;0.10;0.10;;;5.90;99.90;;;;;;5089230;28;20526;-79
2022/04/27 04:45:40;;;;;;;0.10;0.10;;;5.90;99.90;;;;;;5088451;28;20159;-78
2022/04/27 04:48:08;;;;;;;0.20;0.20;;;6.30;99.90;;;;;;5055682;28;20110;-78
2022/04/27 04:50:36;;;;;;;0.20;0.20;;;6.00;99.90;;;;;;5088673;28;20036;-83
2022/04/27 04:53:06;;;;;;;0.20;0.20;;;5.90;99.90;;;;;;5075023;28;20044;-83
2022/04/27 04:55:33;;;;;;;0.20;0.20;;;6.00;99.90;;;;;;5052190;28;20120;-83
2022/04/27 04:57:59;;;;;;;0.20;0.20;;;6.00;99.90;;;;;;5070155;28;20115;-78
2022/04/27 05:00:26;;;;;;;0.10;0.10;;;6.40;99.90;;;;;;5102452;28;20041;-83
2022/04/27 05:02:54;;;;;;;0.20;0.20;;;6.00;99.90;;;;;;5071600;28;20504;-83
2022/04/27 05:05:21;;;;;;;0.10;0.10;;;6.80;99.90;;;;;;5077544;28;20081;-78
2022/04/27 05:07:48;;;;;;;0.10;0.10;;;6.60;99.90;;;;;;5057796;28;20071;-82
2022/04/27 05:10:14;;;;;;;0.20;0.20;;;6.20;99.90;;;;;;5088057;28;20120;-83
2022/04/27 05:12:41;;;;;;;0.10;0.10;;;6.20;99.90;;;;;;5092162;28;20475;-78
2022/04/27 05:15:09;;;;;;;0.20;0.20;;;6.20;99.90;;;;;;5059118;28;20071;-78
2022/04/27 05:17:36;;;;;;;0.10;0.10;;;6.20;99.90;;;;;;5108406;28;20044;-78
2022/04/27 05:20:04;;;;;;;0.13;0.13;;;6.20;99.90;;;;;;5058692;28;20040;-83
2022/04/27 05:22:37;;;;;;;0.10;0.10;;;6.20;99.90;;;;;;5092401;28;20079;-79
2022/04/27 05:25:07;;;;;;;0.30;0.30;;;6.20;99.90;;;;;;5075971;28;20477;-78
2022/04/27 05:27:33;;;;;;;0.10;0.10;;;6.20;99.90;;;;;;5091540;28;20040;-79
2022/04/27 05:32:46;;;;;;;0.10;0.10;;;6.30;99.90;;;;;;5108025;28;20041;-78
2022/04/27 05:35:13;;;;;;;0.10;0.10;;;6.40;99.90;;;;;;5075265;28;20036;-83
2022/04/27 05:37:39;;;;;;;0.10;0.10;;;6.50;99.90;;;;;;5080996;28;20043;-78
2022/04/27 05:40:09;;;;;;;0.20;0.20;;;7.30;99.90;;;;;;5075056;28;20042;-83
2022/04/27 05:42:36;;;;;;;0.20;0.20;;;6.50;99.90;;;;;;5074823;28;20119;-78
2022/04/27 05:45:09;;;;;;;0.00;0.00;;;6.50;99.90;;;;;;5091671;28;20117;-83
2022/04/27 05:47:36;;;;;;;0.10;0.10;;;6.60;99.90;;;;;;5091583;28;20142;-83
2022/04/27 05:50:04;;;;;;;0.10;0.10;;;6.60;99.90;;;;;;5108441;28;20516;-78
2022/04/27 05:52:58;;;;;;;0.10;0.10;;;6.60;99.90;;;;;;5075083;28;20040;-78
2022/04/27 05:55:25;;;;;;;0.10;0.10;;;6.70;99.90;;;;;;5091303;28;20079;-77
2022/04/27 05:57:51;;;;;;;0.30;0.30;;;6.80;99.90;;;;;;5074389;28;20071;-83
2022/04/27 06:00:19;;;;;;;0.10;0.10;;;6.80;99.90;;;;;;5107804;28;20045;-79
2022/04/27 06:02:46;;;;;;;0.10;0.10;;;7.00;99.90;;;;;;5107421;28;20037;-83
2022/04/27 06:05:13;;;;;;;0.15;0.15;;;6.90;99.90;;;;;;5090555;28;20047;-78
2022/04/27 06:07:39;;;;;;;0.10;0.10;;;7.40;99.90;;;;;;5107364;28;20076;-83
2022/04/27 06:10:07;;;;;;;0.10;0.10;;;7.00;99.90;;;;;;5090964;28;20048;-83
2022/04/27 06:12:39;;;;;;;0.10;0.10;;;7.00;99.90;;;;;;5086819;28;20048;-79
2022/04/27 06:15:11;;;;;;;0.10;0.10;;;7.10;99.90;;;;;;5103527;28;20036;-79
2022/04/27 06:17:38;;;;;;;0.10;0.10;;;7.10;99.90;;;;;;5057080;28;20059;-79
2022/04/27 06:20:05;;;;;;;0.10;0.10;;;7.20;99.90;;;;;;5081729;28;20170;-83
2022/04/27 06:22:32;;;;;;;0.10;0.10;;;7.20;99.90;;;;;;5072598;28;20036;-78
2022/04/27 06:24:59;;;;;;;0.10;0.10;;;7.30;99.90;;;;;;5063973;28;20416;-80
2022/04/27 06:27:25;;;;;;;0.10;0.10;;;7.30;99.90;;;;;;5056578;28;20044;-79
2022/04/27 06:29:52;;;;;;;0.10;0.10;;;7.40;99.90;;;;;;5066568;28;20041;-83
2022/04/27 06:32:19;;;;;;;0.10;0.10;;;7.60;99.90;;;;;;5089379;28;20029;-79
2022/04/27 06:34:45;;;;;;;0.10;0.10;;;7.40;99.90;;;;;;5080384;28;20508;-79
2022/04/27 06:37:12;;;;;;;0.10;0.10;;;7.60;99.90;;;;;;5083486;28;20477;-83
2022/04/27 06:39:40;;;;;;;0.10;0.10;;;7.50;99.90;;;;;;5074234;28;20047;-79
2022/04/27 06:42:07;;;;;;;0.13;0.13;;;7.50;99.90;;;;;;5085420;28;20126;-83
2022/04/27 06:44:35;;;;;;;0.10;0.10;;;7.60;99.90;;;;;;5107221;28;20123;-79
2022/04/27 06:47:01;;;;;;;0.10;0.10;;;7.60;99.90;;;;;;5079483;28;20059;-84
2022/04/27 06:49:28;;;;;;;0.10;0.10;;;7.70;99.90;;;;;;5094134;28;20036;-83
2022/04/27 06:51:55;;;;;;;0.10;0.10;;;7.70;99.90;;;;;;5075707;28;20505;-83
2022/04/27 06:54:22;;;;;;;0.10;0.10;;;7.80;99.90;;;;;;5090682;28;20401;-84
2022/04/27 06:56:48;;;;;;;0.10;0.10;;;7.80;99.90;;;;;;5073559;28;20044;-88
2022/04/27 06:59:15;;;;;;;0.10;0.10;;;8.00;99.90;;;;;;5057430;28;20036;-81
2022/04/27 07:01:42;;;;;;;0.10;0.10;;;8.60;99.90;;;;;;5090400;28;20528;-80
2022/04/27 07:04:11;;;;;;;0.10;0.10;;;8.00;99.90;;;;;;5052255;28;20043;-85
2022/04/27 07:06:41;;;;;;;0.10;0.10;;;8.10;99.90;;;;;;5078108;28;20036;-84
2022/04/27 07:09:08;;;;;;;0.10;0.10;;;8.10;99.90;;;;;;5054624;28;20037;-85
2022/04/27 07:11:36;;;;;;;0.10;0.10;;;8.20;99.90;;;;;;5062542;28;20033;-85
2022/04/27 07:14:03;;;;;;;0.10;0.10;;;8.30;99.90;;;;;;5075085;28;20040;-80
2022/04/27 07:16:30;;;;;;;0.10;0.10;;;8.50;99.90;;;;;;5081884;28;20072;-80
2022/04/27 07:18:56;;;;;;;0.10;0.10;;;8.40;99.90;;;;;;5101721;28;20071;-79
2022/04/27 07:21:23;;;;;;;0.10;0.10;;;8.50;99.90;;;;;;5073194;28;20036;-80
2022/04/27 07:23:50;;;;;;;0.10;0.10;;;8.50;99.90;;;;;;5072872;28;20040;-84
2022/04/27 07:26:17;;;;;;;0.10;0.10;;;8.60;99.90;;;;;;5053528;28;20037;-85
2022/04/27 07:28:43;;;;;;;0.10;0.10;;;8.80;99.90;;;;;;5053449;28;20080;-84
2022/04/27 07:31:10;;;;;;;0.10;0.10;;;8.80;99.90;;;;;;5053189;28;20367;-80
2022/04/27 07:33:37;;;;;;;0.10;0.10;;;8.90;99.90;;;;;;5067861;28;20037;-85
2022/04/27 07:36:06;;;;;;;0.10;0.10;;;9.00;99.90;;;;;;5089429;28;20036;-79
2022/04/27 07:38:33;;;;;;;0.10;0.10;;;9.10;99.90;;;;;;5072739;28;20040;-80
2022/04/27 07:40:59;;;;;;;0.05;0.05;;;9.20;99.90;;;;;;5056221;28;20048;-80
2022/04/27 07:43:26;;;;;;;0.10;0.10;;;9.30;99.90;;;;;;5072841;28;20078;-80
2022/04/27 07:45:53;;;;;;;0.00;0.00;;;9.40;99.90;;;;;;5072409;28;20079;-80
2022/04/27 07:48:19;;;;;;;0.10;0.10;;;9.40;99.90;;;;;;5089035;28;20052;-85
2022/04/27 07:50:46;;;;;;;0.10;0.10;;;9.50;99.90;;;;;;5072950;28;20162;-80
2022/04/27 07:53:13;;;;;;;0.10;0.10;;;9.50;99.90;;;;;;5089389;28;20044;-80
2022/04/27 07:55:40;;;;;;;0.10;0.10;;;9.50;99.90;;;;;;5056162;28;20053;-85
2022/04/27 07:58:06;;;;;;;0.10;0.10;;;9.60;99.90;;;;;;5088931;28;20072;-85
2022/04/27 08:00:33;;;;;;;0.10;0.10;;;9.60;99.90;;;;;;5089589;28;20055;-85
2022/04/27 08:03:00;;;;;;;0.10;0.10;;;9.60;99.90;;;;;;5056023;28;20150;-85
2022/04/27 08:05:27;;;;;;;0.10;0.10;;;9.60;99.90;;;;;;5089210;28;20044;-85
2022/04/27 08:07:54;;;;;;;0.10;0.10;;;9.50;99.90;;;;;;5072513;28;20124;-84
2022/04/27 08:10:21;;;;;;;0.10;0.10;;;9.50;99.90;;;;;;5072916;28;20209;-85
2022/04/27 08:12:49;;;;;;;0.05;0.05;;;9.60;99.90;;;;;;5072521;28;20497;-80
2022/04/27 08:15:18;;;;;;;0.10;0.10;;;9.60;99.90;;;;;;5089320;28;20037;-80
2022/04/27 08:17:55;;;;;;;0.10;0.10;;;9.60;99.90;;;;;;5106199;28;20123;-85
2022/04/27 08:23:12;;;;;;;0.10;0.10;;;9.70;99.90;;;;;;5105575;28;20131;-85
2022/04/27 08:25:39;;;;;;;0.10;0.10;;;9.70;99.90;;;;;;5072739;28;20040;-85
2022/04/27 08:28:07;;;;;;;0.10;0.10;;;9.70;99.90;;;;;;5075144;28;20032;-80
2022/04/27 08:30:41;;;;;;;0.10;0.10;;;9.70;99.90;;;;;;5076469;28;20041;-85
2022/04/27 08:33:08;;;;;;;0.10;0.10;;;9.80;99.90;;;;;;5076536;28;20076;-80
2022/04/27 08:35:36;;;;;;;0.00;0.00;;;9.80;99.90;;;;;;5092958;28;20041;-80
2022/04/27 08:38:05;;;;;;;0.03;0.03;;;9.90;99.90;;;;;;5093067;28;20511;-80
2022/04/27 08:40:34;;;;;;;0.10;0.10;;;9.90;99.90;;;;;;5093082;28;20526;-80
2022/04/27 08:43:01;;;;;;;0.10;0.10;;;10.00;99.90;;;;;;5092896;28;20406;-80
2022/04/27 08:45:29;;;;;;;0.10;0.10;;;10.00;99.90;;;;;;5059250;28;20043;-80
2022/04/27 08:47:56;;;;;;;0.10;0.10;;;9.90;99.90;;;;;;5075716;28;20139;-80
2022/04/27 08:50:24;;;;;;;0.10;0.10;;;9.90;99.90;;;;;;5092246;28;20409;-85
2022/04/27 08:52:52;;;;;;;0.10;0.10;;;10.00;99.90;;;;;;5093087;28;20131;-80
2022/04/27 08:55:19;;;;;;;0.10;0.10;;;10.00;99.90;;;;;;5092441;28;20081;-80
2022/04/27 08:57:48;;;;;;;0.10;0.10;;;10.00;99.90;;;;;;5092811;28;20128;-85
2022/04/27 09:00:19;;;;;;;0.10;0.10;;;10.10;99.90;;;;;;5092325;28;20400;-85
2022/04/27 09:02:48;;;;;;;0.03;0.03;;;10.10;99.90;;;;;;5108970;28;20036;-86
2022/04/27 09:05:18;;;;;;;0.10;0.10;;;10.40;99.90;;;;;;5092152;28;20117;-85
2022/04/27 09:07:50;;;;;;;0.00;0.00;;;10.10;99.90;;;;;;5092071;28;20041;-85
2022/04/27 09:10:19;;;;;;;0.10;0.10;;;10.20;99.90;;;;;;5092081;28;20737;-85
2022/04/27 09:12:51;;;;;;;0.10;0.10;;;10.20;99.90;;;;;;5075870;28;20044;-80
2022/04/27 09:15:21;;;;;;;0.10;0.10;;;10.30;99.90;;;;;;5075662;28;20047;-85
2022/04/27 09:20:47;;;;;;;0.10;0.10;;;10.30;99.90;;;;;;5108977;28;20041;-79
2022/04/27 09:23:25;;;;;;;0.10;0.10;;;10.30;99.90;;;;;;5091885;28;20182;-85
2022/04/27 09:26:12;;;;;;;0.03;0.03;;;10.30;99.90;;;;;;5092123;28;20052;-80
2022/04/27 09:28:39;;;;;;;0.03;0.03;;;10.40;99.90;;;;;;5092093;28;20036;-80
2022/04/27 09:31:05;;;;;;;0.00;0.00;;;10.40;99.90;;;;;;5108554;28;20389;-84
2022/04/27 09:33:37;;;;;;;0.10;0.10;;;10.50;99.90;;;;;;5091993;28;20552;-85
2022/04/27 09:36:23;;;;;;;0.08;0.08;;;10.60;99.90;;;;;;5091938;28;20047;-84
2022/04/27 09:38:50;;;;;;;0.10;0.10;;;10.70;99.90;;;;;;5091529;28;20101;-85
2022/04/27 09:41:41;;;;;;;0.08;0.08;;;10.80;99.90;;;;;;5108099;28;20037;-80
2022/04/27 09:44:25;;;;;;;0.10;0.10;;;10.90;99.90;;;;;;5074807;28;20067;-80
2022/04/27 09:46:51;;;;;;;0.08;0.08;;;11.00;99.90;;;;;;5091072;28;20049;-80
2022/04/27 09:49:18;;;;;;;0.08;0.08;;;11.00;99.90;;;;;;5075011;28;20092;-79
2022/04/27 09:51:47;;;;;;;0.00;0.00;;;11.00;99.90;;;;;;5074916;28;20045;-80
2022/04/27 09:54:24;;;;;;;0.10;0.10;;;11.00;99.20;;;;;;5091345;28;20481;-80
2022/04/27 09:56:55;;;;;;;0.00;0.00;;;11.00;99.50;;;;;;5091170;28;20084;-85
2022/04/27 09:59:26;;;;;;;0.05;0.05;;;11.10;99.90;;;;;;5074687;28;20497;-80
2022/04/27 10:01:56;;;;;;;0.10;0.10;;;11.10;99.90;;;;;;5091919;28;20048;-85
2022/04/27 10:04:26;;;;;;;0.10;0.10;;;11.20;99.90;;;;;;5108260;28;20485;-85
2022/04/27 10:06:53;;;;;;;0.10;0.10;;;11.20;99.90;;;;;;5091245;28;20433;-80
2022/04/27 10:09:19;;;;;;;0.00;0.00;;;11.20;99.90;;;;;;5074392;28;20123;-80
2022/04/27 10:11:46;;;;;;;0.10;0.10;;;11.20;99.00;;;;;;5071048;28;20186;-85
2022/04/27 10:14:13;;;;;;;0.00;0.00;;;11.30;99.90;;;;;;5054406;28;20052;-80
2022/04/27 10:16:40;;;;;;;0.10;0.10;;;11.20;97.90;;;;;;5087533;28;20572;-80
2022/04/27 10:19:10;;;;;;;0.10;0.10;;;11.30;99.50;;;;;;5054710;28;20045;-80
2022/04/27 10:21:43;;;;;;;0.00;0.00;;;11.30;99.90;;;;;;5076969;28;20036;-80
2022/04/27 10:24:11;;;;;;;0.00;0.00;;;11.40;99.90;;;;;;5107601;28;20037;-84
2022/04/27 10:26:39;;;;;;;0.03;0.03;;;11.50;98.60;;;;;;5074336;28;20051;-79
2022/04/27 10:29:06;;;;;;;0.00;0.00;;;11.50;98.60;;;;;;5074464;28;20079;-85
2022/04/27 10:31:48;;;;;;;0.00;0.00;;;11.50;97.70;;;;;;5090489;28;20079;-85
2022/04/27 10:34:20;;;;;;;0.00;0.00;;;11.60;98.80;;;;;;5086968;28;20128;-80
2022/04/27 10:36:58;;;;;;;0.00;0.00;;;11.70;99.50;;;;;;5087592;28;20048;-85
2022/04/27 10:39:29;;;;;;;0.08;0.08;;;11.80;97.70;;;;;;5070316;28;20575;-85
2022/04/27 10:42:02;;;;;;;0.10;0.10;;;11.70;97.70;;;;;;5086690;28;20044;-80
2022/04/27 10:44:47;;;;;;;0.00;0.00;;;11.70;96.80;;;;;;5086725;28;20048;-80
2022/04/27 10:47:15;;;;;;;0.00;0.00;;;11.70;98.00;;;;;;5086568;28;20161;-85
2022/04/27 10:49:42;;;;;;;0.00;0.00;;;11.80;98.40;;;;;;5070303;28;20041;-80
2022/04/27 10:52:10;;;;;;;0.00;0.00;;;11.90;98.00;;;;;;5087198;28;20115;-80
2022/04/27 10:54:39;;;;;;;0.05;0.05;;;11.90;98.00;;;;;;5086526;28;20040;-85
2022/04/27 10:57:15;;;;;;;0.10;0.10;;;12.10;98.70;;;;;;5090531;28;20037;-85
2022/04/27 10:59:49;;;;;;;0.00;0.00;;;12.20;98.00;;;;;;5090376;28;20130;-85
2022/04/27 11:02:38;;;;;;;0.00;0.00;;;12.20;98.30;;;;;;5090541;28;20098;-86
2022/04/27 11:05:11;;;;;;;0.10;0.10;;;12.10;96.90;;;;;;5106428;28;20458;-80
2022/04/27 11:07:42;;;;;;;0.00;0.00;;;12.10;96.00;;;;;;5089726;28;20036;-79
2022/04/27 11:10:16;;;;;;;0.13;0.13;;;12.00;96.50;;;;;;5090146;28;20037;-85
2022/04/27 11:12:46;;;;;;;0.00;0.00;;;12.10;97.80;;;;;;5090159;28;20071;-85
2022/04/27 11:15:21;;;;;;;0.00;0.00;;;12.20;96.70;;;;;;5089847;28;20408;-80
2022/04/27 11:18:02;;;;;;;0.00;0.00;;;12.20;96.20;;;;;;5090399;28;20090;-80
2022/04/27 11:20:37;;;;;;;0.00;0.00;;;12.30;97.50;;;;;;5106743;28;20049;-85
2022/04/27 11:23:20;;;;;;;0.00;0.00;;;12.30;95.90;;;;;;5090363;28;20040;-80
2022/04/27 11:25:51;;;;;;;0.00;0.00;;;12.30;96.60;;;;;;5075361;28;20064;-84
2022/04/27 11:28:18;;;;;;;0.00;0.00;;;12.30;96.90;;;;;;5089419;28;20066;-80
2022/04/27 11:30:45;;;;;;;0.00;0.00;;;12.40;96.70;;;;;;5090455;28;20040;-85
2022/04/27 11:33:16;;;;;;;0.10;0.10;;;12.40;95.80;;;;;;5073218;28;20036;-85
2022/04/27 11:35:45;;;;;;;0.08;0.08;;;12.40;97.60;;;;;;5089810;28;20056;-80
2022/04/27 11:38:19;;;;;;;0.00;0.00;;;12.40;97.00;;;;;;5089828;28;20045;-80
2022/04/27 11:40:49;;;;;;;0.00;0.00;;;12.50;96.70;;;;;;5106046;28;20083;-85
2022/04/27 11:43:24;;;;;;;0.00;0.00;;;12.50;96.50;;;;;;5106174;28;20480;-80
2022/04/27 11:45:50;;;;;;;0.00;0.00;;;12.50;95.70;;;;;;5089305;28;20405;-80
2022/04/27 11:48:18;;;;;;;0.00;0.00;;;12.50;96.60;;;;;;5089136;28;20055;-83
2022/04/27 11:50:46;;;;;;;0.00;0.00;;;12.50;95.80;;;;;;5056811;28;20048;-81
2022/04/27 11:53:13;;;;;;;0.00;0.00;;;12.50;95.70;;;;;;5056858;28;20040;-80
2022/04/27 11:55:42;;;;;;;0.10;0.10;;;12.60;94.80;;;;;;5089499;28;20071;-80
2022/04/27 11:58:09;;;;;;;0.13;0.10;;;12.60;97.20;;;;;;5056970;28;20386;-80
2022/04/27 12:00:36;;;;;;;0.10;0.10;;;12.60;96.10;;;;;;5089046;28;20037;-85
2022/04/27 12:03:04;;;;;;;0.10;0.10;;;12.60;95.90;;;;;;5088916;28;20037;-80
2022/04/27 12:05:33;;;;;;;0.00;0.00;;;12.50;97.70;;;;;;5069025;28;20037;-80
2022/04/27 12:08:02;;;;;;;0.00;0.00;;;12.40;97.10;;;;;;5069665;28;20041;-85
2022/04/27 12:10:29;;;;;;;0.00;0.00;;;12.50;97.70;;;;;;5085765;28;20041;-80
2022/04/27 12:13:00;;;;;;;0.03;0.03;;;12.40;97.00;;;;;;5069489;28;20069;-85
2022/04/27 12:15:27;;;;;;;0.00;0.00;;;12.30;98.80;;;;;;5069222;28;20037;-84
2022/04/27 12:17:58;;;;;;;0.00;0.00;;;12.10;98.40;;;;;;5069241;28;20047;-79
2022/04/27 12:20:40;;;;;;;0.08;0.08;;;11.90;98.70;;;;;;5069084;28;20482;-81
2022/04/27 12:23:16;;;;;;;0.00;0.00;;;11.90;99.80;;;;;;5086472;28;20063;-85
2022/04/27 12:25:59;;;;;;;0.00;0.00;;;12.00;99.90;;;;;;5085153;28;20409;-80
2022/04/27 12:28:34;;;;;;;0.00;0.00;;;12.00;99.90;;;;;;5088639;28;20553;-79
2022/04/27 12:31:05;;;;;;;;;;;12.00;99.90;;;;;;5091350;28;20124;-80
2022/04/27 12:33:53;;;;;;;0.10;0.10;;;11.90;99.90;;;;;;5089418;28;19923;-86
2022/04/27 12:39:22;;;;;;;0.10;0.10;;;12.00;99.90;;;;;;5104282;28;20051;-82
2022/04/27 12:41:52;;;;;;;0.10;0.10;;;12.00;99.90;;;;;;5106368;28;20510;-87
2022/04/27 12:44:21;;;;;;;0.00;0.00;;;12.00;99.90;;;;;;5072697;28;20051;-81
2022/04/27 12:47:21;;;;;;;0.10;0.10;;;12.00;99.90;;;;;;5099648;28;20452;-83
2022/04/27 12:49:48;;;;;;;0.03;0.03;;;12.00;99.90;;;;;;5067208;28;20057;-87
2022/04/27 12:52:26;;;;;;;0.00;0.00;;;11.90;99.90;;;;;;5056262;28;20127;-86
2022/04/27 12:55:04;;;;;;;0.17;0.10;;;11.80;99.90;;;;;;5089371;28;20033;-82
2022/04/27 12:57:48;;;;;;;0.80;0.28;;;11.70;99.90;;;;;;5088718;28;20047;-83
2022/04/27 13:00:17;;;;;;;0.00;0.00;;;11.80;99.90;;;;;;5089463;28;20102;-86
2022/04/27 13:02:44;;;;;;;0.00;0.00;;;11.70;99.90;;;;;;5072575;28;20041;-82
2022/04/27 13:05:11;;;;;;;0.00;0.00;;;11.70;99.90;;;;;;5073034;28;20098;-82
2022/04/27 13:07:37;;;;;;;0.08;0.08;;;11.70;99.90;;;;;;5088899;28;20378;-87
2022/04/27 13:12:51;;;;;;;;;;;11.70;99.90;;;;;;5095744;28;20106;-83
2022/04/27 13:15:18;;;;;;;0.10;0.10;;;11.80;99.90;;;;;;5092473;28;20315;-83
2022/04/27 13:17:46;;;;;;;0.03;0.03;;;11.80;99.90;;;;;;5109157;28;20080;-83
2022/04/27 13:20:13;;;;;;;0.00;0.00;;;11.80;99.90;;;;;;5109217;28;20101;-88
2022/04/27 13:22:39;;;;;;;0.00;0.00;;;11.90;99.90;;;;;;5075984;28;20041;-82
2022/04/27 13:25:07;;;;;;;0.10;0.10;;;11.90;99.90;;;;;;5108761;28;20127;-83